Home   Weather   Germany   Rheda-Wiedenbrück   Past weeks
Flag for Germany

Past Weather in Rheda-Wiedenbrück, North Rhine-Westphalia, Germany — Yesterday and Last 2 Weeks

Currently: 73 °F. Passing clouds. (Weather station: Paderborn / Lippstadt, Germany). See more current weather

Past Weather in Rheda-Wiedenbrück — Graph

°F

Rheda-Wiedenbrück Temperature Yesterday

Maximum temperature yesterday: 68 °F (at 4:20 pm)
Minimum temperature yesterday: 52 °F (at 5:50 am)
Average temperature yesterday: 60 °F

High & Low Weather Summary for the Past Weeks

 TemperatureHumidityPressure
High86 °F (Jul 9, 4:20 pm)100% (Jun 30, 2:50 am)30.09 "Hg (Jun 30, 2:50 am)
Low50 °F (Jul 7, 2:20 am)34% (Jun 29, 1:20 pm)29.56 "Hg (Jul 6, 11:20 am)
Average63 °F74%29.88 "Hg
* Reported Jun 29 1:20 pm — Jul 14 1:50 pm, Rheda-Wiedenbrück. Weather by CustomWeather, © 2024

Note: Actual official high and low records may vary slightly from our data, if they occured in-between our weather recording intervals... More about our weather records

Rheda-Wiedenbrück Weather History for the Previous 24 Hours

Scroll right to see more
 ConditionsComfort  
Time TempWeatherWind HumidityBarometerVisibility
1:50 pm
Sun, Jul 14
68 °FPassing clouds.9 mph49%29.92 "HgN/A
1:20 pm68 °FPassing clouds.8 mph49%29.92 "HgN/A
12:50 pm70 °FPassing clouds.10 mph50%29.92 "HgN/A
12:20 pm70 °FPassing clouds.12 mph46%29.92 "HgN/A
11:50 am68 °FScattered clouds.9 mph53%29.92 "HgN/A
10:50 am66 °FPassing clouds.8 mph60%29.92 "HgN/A
10:20 am66 °FPassing clouds.8 mph60%29.92 "HgN/A
9:50 am63 °FPassing clouds.6 mph68%29.92 "HgN/A
9:20 am63 °FPassing clouds.6 mph68%29.95 "HgN/A
8:50 am59 °FSunny.7 mph77%29.95 "Hg10 mi
8:20 am59 °FSunny.5 mph72%29.95 "Hg10 mi
7:50 am59 °FSunny.2 mph77%29.95 "Hg10 mi
7:20 am54 °FSunny.2 mph88%29.95 "Hg10 mi
6:50 am54 °FSunny.7 mph88%29.95 "Hg10 mi
6:20 am54 °FSunny.7 mph82%29.95 "Hg10 mi
5:50 am52 °FSunny.2 mph88%29.92 "Hg10 mi
5:20 am54 °FClear.7 mph82%29.92 "Hg10 mi
4:50 am54 °FClear.6 mph82%29.92 "Hg10 mi
4:20 am54 °FClear.7 mph82%29.92 "Hg10 mi
3:50 am54 °FPassing clouds.5 mph88%29.92 "HgN/A
3:20 am52 °FClear.1 mph88%29.92 "Hg10 mi
2:50 am54 °FClear.2 mph82%29.92 "Hg10 mi
2:20 am55 °FClear.7 mph77%29.92 "Hg10 mi
1:50 am55 °FClear.7 mph77%29.92 "Hg10 mi
1:20 am55 °FClear.5 mph77%29.92 "Hg10 mi
12:50 am55 °FClear.3 mph77%29.92 "Hg10 mi
12:20 am59 °FClear.8 mph68%29.92 "Hg10 mi
11:20 pm
Sat, Jul 13
54 °FClear.6 mph82%29.92 "Hg10 mi
10:50 pm57 °FClear.5 mph72%29.92 "Hg10 mi
10:20 pm59 °FPassing clouds.5 mph72%29.92 "HgN/A
9:50 pm61 °FClear.5 mph63%29.92 "Hg10 mi
9:20 pm61 °FSunny.7 mph63%29.92 "Hg10 mi
8:50 pm63 °FPassing clouds.9 mph59%29.92 "HgN/A
8:20 pm64 °FPassing clouds.9 mph56%29.92 "HgN/A
7:50 pm64 °FPassing clouds.13 mph56%29.92 "HgN/A
7:20 pm66 °FSunny.13 mph52%29.92 "Hg10 mi
6:50 pm66 °FPassing clouds.9 mph49%29.92 "HgN/A
6:20 pm66 °FPassing clouds.14 mph49%29.92 "HgN/A
5:50 pm66 °FScattered clouds.13 mph52%29.92 "HgN/A
5:20 pm68 °FScattered clouds.9 mph49%29.92 "HgN/A
4:50 pm66 °FPassing clouds.10 mph52%29.92 "HgN/A
4:20 pm68 °FScattered clouds.12 mph56%29.92 "HgN/A
3:20 pm64 °FMostly cloudy.8 mph56%29.92 "HgN/A
Weather by CustomWeather, © 2024

See weather overview